Socorro, Texas
Current Conditions -  °F | °C
As of 9:40 AM on Tuesday 27 Jan 2015 (Local Time) from MMCS Reporting Station
Overcast Overcast  
Wind Chill: 54°   Ceiling: 4000
Heat Index: 54°   Visibility: 10mi
Dew Point: 32°   Wind: 7mph
Humidity: 44%   Direction: 270°W
Pressure: 30.3"   Gusts: NA
Location:  31.66°N, 106.3°W
Report Text: MMCS 271640Z 27006KT 10SM BKN040 OVC100 12/00 A3030 RMK 8/53/ BINOVC
Loading
Personal Weather Stations






























Interactive Weather Map New forecast layout! Learn more

10-Day Weather Forecast

Advertisements
Track Severe Weather on mobile